Time;durP1;ratioP1;P1;durP2;ratioP2;P2;SDS_P1;SDS_P2;PMS_P1;PMS_P2;Temp;Humidity;BMP_temperature;BMP_pressure;BME280_temperature;BME280_humidity;BME280_pressure;Samples;Min_cycle;Max_cycle;Signal;HPM_P1;HPM_P2
2022/09/18 00:01:31;;;;;;;0.30;0.30;;;12.70;99.90;;;13.31;72.36;100634.34;5032856;28;20609;-65
2022/09/18 00:04:02;;;;;;;0.30;0.20;;;12.70;99.90;;;13.37;72.42;100638.25;5050370;28;20638;-64
2022/09/18 00:06:34;;;;;;;0.30;0.30;;;12.70;99.90;;;13.39;72.27;100647.66;5051522;28;21219;-65
2022/09/18 00:09:05;;;;;;;0.30;0.30;;;12.70;99.90;;;13.22;72.97;100641.19;5046714;28;20709;-64
2022/09/18 00:11:42;;;;;;;0.60;0.60;;;12.60;99.90;;;13.28;72.52;100642.47;5044652;28;21029;-66
2022/09/18 00:14:15;;;;;;;0.30;0.20;;;12.60;99.90;;;13.32;72.57;100646.50;5049669;28;20708;-65
2022/09/18 00:16:42;;;;;;;0.30;0.30;;;12.60;99.90;;;13.36;72.92;100642.66;5043677;28;20706;-64
2022/09/18 00:19:10;;;;;;;0.30;0.30;;;12.70;99.90;;;13.39;73.03;100641.59;5048556;28;21043;-65
2022/09/18 00:21:41;;;;;;;0.30;0.30;;;12.70;99.90;;;13.34;72.90;100649.81;5050271;28;20624;-65
2022/09/18 00:24:08;;;;;;;0.30;0.30;;;12.70;99.90;;;13.36;72.48;100639.19;5049319;28;20615;-66
2022/09/18 00:26:35;;;;;;;0.30;0.20;;;12.70;99.90;;;13.42;72.47;100649.16;5042740;28;20661;-65
2022/09/18 00:29:03;;;;;;;0.30;0.30;;;12.70;99.90;;;13.42;72.57;100650.00;5037334;28;20632;-67
2022/09/18 00:31:33;;;;;;;0.30;0.20;;;12.70;99.90;;;13.24;73.62;100652.34;5049685;28;20607;-65
2022/09/18 00:34:07;;;;;;;0.30;0.20;;;12.60;99.90;;;13.30;73.36;100650.19;5060686;28;20643;-65
2022/09/18 00:36:36;;;;;;;0.30;0.30;;;12.60;99.90;;;13.31;73.69;100650.06;5034801;28;20671;-64
2022/09/18 00:39:05;;;;;;;0.30;0.30;;;12.60;99.90;;;13.32;73.60;100645.66;5049831;28;20638;-65
2022/09/18 00:41:37;;;;;;;0.30;0.20;;;12.60;99.90;;;13.32;73.80;100646.50;5048522;28;20640;-66
2022/09/18 00:44:41;;;;;;;0.30;0.20;;;12.60;99.90;;;13.30;73.84;100642.34;5049778;28;20624;-65
2022/09/18 00:47:17;;;;;;;0.30;0.20;;;12.60;99.90;;;13.23;74.30;100642.00;5053054;28;20714;-64
2022/09/18 00:49:48;;;;;;;0.30;0.20;;;12.60;99.90;;;13.13;74.10;100641.13;5055622;28;20612;-64
2022/09/18 00:52:17;;;;;;;0.30;0.20;;;12.50;99.90;;;13.17;74.73;100638.13;5049330;28;20862;-65
2022/09/18 00:54:49;;;;;;;0.30;0.20;;;12.50;99.90;;;13.20;74.46;100631.81;5049527;28;20662;-65
2022/09/18 00:57:23;;;;;;;0.30;0.20;;;12.60;99.90;;;13.23;74.72;100631.53;5050198;28;20663;-65
2022/09/18 00:59:51;;;;;;;0.30;0.20;;;12.60;99.90;;;13.40;74.06;100636.19;5045048;28;21213;-64
2022/09/18 01:02:19;;;;;;;0.30;0.30;;;12.60;99.90;;;13.45;73.97;100631.41;5047795;28;20633;-65
2022/09/18 01:04:47;;;;;;;0.30;0.20;;;12.70;99.90;;;13.46;73.87;100632.25;5070689;28;20619;-66
2022/09/18 01:07:45;;;;;;;0.30;0.30;;;12.70;99.90;;;13.42;74.01;100626.41;5068352;28;20688;-65
2022/09/18 01:10:30;;;;;;;0.30;0.30;;;12.70;99.90;;;13.39;74.10;100637.19;5056658;28;20625;-68
2022/09/18 01:13:21;;;;;;;0.30;0.20;;;12.70;99.90;;;13.33;74.46;100632.41;5046465;28;20636;-65
2022/09/18 01:15:56;;;;;;;0.30;0.23;;;12.60;99.90;;;13.36;74.34;100633.97;5050353;28;20646;-65
2022/09/18 01:18:50;;;;;;;0.30;0.20;;;12.70;99.90;;;13.37;74.03;100633.84;5050193;28;20611;-66
2022/09/18 01:21:37;;;;;;;0.30;0.20;;;12.70;99.90;;;13.36;74.45;100636.59;5039433;28;21088;-65
2022/09/18 01:24:22;;;;;;;0.30;0.20;;;12.70;99.90;;;13.33;74.50;100631.63;5029887;28;20601;-64
2022/09/18 01:26:49;;;;;;;0.30;0.20;;;12.60;99.90;;;13.31;74.03;100629.09;5030678;28;20703;-65
2022/09/18 01:29:27;;;;;;;0.30;0.20;;;12.70;99.90;;;13.25;74.30;100642.72;5041234;28;20644;-66
2022/09/18 01:32:15;;;;;;;0.30;0.30;;;12.60;99.90;;;13.14;74.94;100642.75;5056786;28;21198;-65
2022/09/18 01:35:08;;;;;;;0.30;0.30;;;12.60;99.90;;;13.31;74.39;100638.78;5029103;28;20625;-65
2022/09/18 01:38:03;;;;;;;0.30;0.20;;;12.60;99.90;;;13.15;74.67;100644.44;5043598;28;20743;-65
2022/09/18 01:40:41;;;;;;;0.30;0.20;;;12.60;99.90;;;13.18;74.86;100638.97;5037797;28;20631;-65
2022/09/18 01:43:13;;;;;;;0.30;0.20;;;12.50;99.90;;;13.24;74.63;100641.88;5029032;28;21015;-63
2022/09/18 01:45:46;;;;;;;0.30;0.20;;;12.50;99.90;;;13.33;74.38;100642.91;5059899;28;20611;-67
2022/09/18 01:48:27;;;;;;;0.30;0.30;;;12.60;99.90;;;13.32;74.46;100640.41;5060044;28;20665;-65
2022/09/18 01:51:03;;;;;;;0.30;0.20;;;12.60;99.90;;;13.29;74.27;100636.25;5051720;28;20666;-64
2022/09/18 01:53:36;;;;;;;0.30;0.20;;;12.60;99.90;;;13.21;74.56;100633.44;5054785;28;20635;-67
2022/09/18 01:56:36;;;;;;;0.30;0.30;;;12.60;99.90;;;13.35;74.38;100633.16;5033121;28;20685;-66
2022/09/18 01:59:11;;;;;;;0.30;0.30;;;12.60;99.90;;;13.22;75.16;100635.13;5049391;28;20619;-65
2022/09/18 02:01:42;;;;;;;0.30;0.27;;;12.60;99.90;;;13.34;74.85;100621.00;5055500;28;21066;-65
2022/09/18 02:04:21;;;;;;;0.30;0.30;;;12.60;99.90;;;13.32;75.15;100633.41;5067032;28;20616;-66
2022/09/18 02:07:00;;;;;;;0.30;0.30;;;12.60;99.90;;;13.43;74.72;100637.75;5038929;28;20702;-66
2022/09/18 02:09:28;;;;;;;0.30;0.30;;;12.70;99.90;;;13.37;75.46;100633.03;5035751;28;20673;-65
2022/09/18 02:11:58;;;;;;;0.30;0.20;;;12.60;99.90;;;13.38;75.77;100627.63;5043403;28;20632;-67
2022/09/18 02:14:34;;;;;;;0.30;0.30;;;12.70;99.90;;;13.39;75.26;100618.00;5048379;28;21032;-65
2022/09/18 02:17:27;;;;;;;0.30;0.20;;;12.70;99.90;;;13.40;75.96;100625.72;5059622;28;20729;-66
2022/09/18 02:20:00;;;;;;;0.30;0.20;;;12.70;99.90;;;13.32;77.26;100624.69;5033427;28;20630;-65
2022/09/18 02:22:31;;;;;;;0.30;0.20;;;12.60;99.90;;;13.37;77.18;100623.38;5033511;28;20647;-65
2022/09/18 02:25:06;;;;;;;0.30;0.20;;;12.70;99.90;;;13.41;77.29;100622.16;5046539;28;20624;-65
2022/09/18 02:27:37;;;;;;;0.30;0.20;;;12.70;99.90;;;13.41;76.96;100618.69;5051258;28;21283;-65
2022/09/18 02:30:07;;;;;;;0.30;0.20;;;12.70;99.90;;;13.31;76.95;100610.75;5066857;28;20736;-65
2022/09/18 02:32:39;;;;;;;0.30;0.30;;;12.70;99.90;;;13.33;77.73;100611.47;5073829;28;20610;-64
2022/09/18 02:35:08;;;;;;;0.30;0.20;;;12.60;99.90;;;13.32;77.81;100617.69;5073766;28;20676;-65
2022/09/18 02:37:56;;;;;;;0.30;0.30;;;12.60;99.90;;;13.38;77.33;100613.69;5059843;28;21225;-64
2022/09/18 02:40:58;;;;;;;0.30;0.27;;;12.60;99.90;;;13.22;78.19;100614.97;5058680;28;20655;-64
2022/09/18 02:43:45;;;;;;;0.30;0.30;;;12.50;99.90;;;13.13;79.01;100607.06;5041604;28;20631;-64
2022/09/18 02:46:35;;;;;;;0.30;0.20;;;12.50;99.90;;;13.32;78.08;100615.06;5052280;28;20639;-67
2022/09/18 02:49:08;;;;;;;0.30;0.20;;;12.50;99.90;;;13.21;78.64;100612.50;5040492;28;20638;-64
2022/09/18 02:51:45;;;;;;;0.30;0.30;;;12.50;99.90;;;13.22;78.30;100619.41;5053297;28;20615;-66
2022/09/18 02:54:41;;;;;;;0.30;0.30;;;12.50;99.90;;;13.23;78.45;100616.66;5052693;28;21166;-65
2022/09/18 02:57:17;;;;;;;0.30;0.20;;;12.50;99.90;;;13.21;78.20;100618.56;5044558;28;20726;-65
2022/09/18 02:59:53;;;;;;;0.30;0.20;;;12.50;99.90;;;13.22;78.51;100620.22;5056235;28;20610;-65
2022/09/18 03:02:21;;;;;;;0.30;0.23;;;12.50;99.90;;;13.23;78.95;100618.44;5046200;28;21208;-64
2022/09/18 03:04:49;;;;;;;0.30;0.20;;;12.50;99.90;;;13.25;78.90;100624.38;5065095;28;20608;-65
2022/09/18 03:07:17;;;;;;;0.30;0.20;;;12.50;99.90;;;13.30;79.54;100629.25;5072272;28;20639;-65
2022/09/18 03:09:44;;;;;;;0.30;0.20;;;12.50;99.90;;;13.32;79.18;100630.78;5064215;28;21055;-64
2022/09/18 03:12:11;;;;;;;0.30;0.30;;;12.60;99.90;;;13.33;79.51;100627.19;5051289;28;20616;-65
2022/09/18 03:14:38;;;;;;;0.30;0.20;;;12.60;99.90;;;13.35;79.18;100625.28;5034087;28;20615;-66
2022/09/18 03:17:05;;;;;;;0.30;0.20;;;12.60;99.90;;;13.31;78.66;100623.06;5051036;28;20680;-65
2022/09/18 03:19:32;;;;;;;0.30;0.20;;;12.50;99.90;;;13.27;79.27;100617.22;5021517;28;21195;-66
2022/09/18 03:22:00;;;;;;;0.33;0.30;;;12.50;99.90;;;13.38;78.66;100618.94;5032486;28;20612;-65
2022/09/18 03:24:27;;;;;;;0.30;0.20;;;12.60;99.90;;;13.40;78.55;100612.63;5049609;28;20628;-65
2022/09/18 03:26:54;;;;;;;0.30;0.20;;;12.60;99.90;;;13.38;78.81;100614.53;5052187;28;21284;-66
2022/09/18 03:29:20;;;;;;;0.30;0.20;;;12.60;99.90;;;13.23;78.65;100608.78;5051760;28;20628;-65
2022/09/18 03:31:47;;;;;;;0.30;0.20;;;12.60;99.90;;;13.33;78.20;100606.22;5035472;28;21160;-65
2022/09/18 03:34:14;;;;;;;0.30;0.20;;;12.60;99.90;;;13.17;79.31;100597.97;5059394;28;20651;-64
2022/09/18 03:36:41;;;;;;;0.30;0.20;;;12.50;99.90;;;13.24;78.90;100604.38;5057231;28;21007;-65
2022/09/18 03:39:08;;;;;;;0.30;0.20;;;12.50;99.90;;;13.39;78.76;100605.72;5049308;28;20636;-65
2022/09/18 03:41:35;;;;;;;0.30;0.20;;;12.50;99.90;;;13.38;78.49;100611.06;5039043;28;20621;-66
2022/09/18 03:44:02;;;;;;;0.30;0.30;;;12.60;99.90;;;13.35;77.60;100606.94;5031625;28;20609;-65
2022/09/18 03:46:28;;;;;;;0.30;0.20;;;12.60;99.90;;;13.32;77.68;100612.44;5034480;28;20648;-64
2022/09/18 03:48:55;;;;;;;0.30;0.20;;;12.60;99.90;;;13.30;77.94;100613.50;5032690;28;21536;-65
2022/09/18 03:51:22;;;;;;;0.30;0.27;;;12.60;99.90;;;13.35;78.19;100614.81;5049565;28;20644;-64
2022/09/18 03:53:52;;;;;;;0.30;0.20;;;12.60;99.90;;;13.44;77.79;100618.44;5048456;28;20616;-65
2022/09/18 03:56:19;;;;;;;0.30;0.30;;;12.60;99.90;;;13.34;77.32;100622.78;5031223;28;20628;-65
2022/09/18 03:58:45;;;;;;;0.30;0.20;;;12.60;99.90;;;13.34;77.50;100618.38;5034598;28;20702;-64
2022/09/18 04:01:12;;;;;;;0.30;0.20;;;12.60;99.90;;;13.40;77.32;100623.09;5052143;28;21021;-65
2022/09/18 04:03:39;;;;;;;0.30;0.30;;;12.60;99.90;;;13.34;77.37;100615.75;5045061;28;20682;-65
2022/09/18 04:06:07;;;;;;;0.30;0.27;;;12.60;99.90;;;13.38;77.22;100614.53;5051971;28;20662;-66
2022/09/18 04:08:35;;;;;;;0.30;0.30;;;12.60;99.90;;;13.41;77.59;100623.94;5050147;28;20639;-65
2022/09/18 04:11:03;;;;;;;0.30;0.20;;;12.70;99.90;;;13.34;78.02;100618.38;5049780;28;20616;-65
2022/09/18 04:13:32;;;;;;;0.30;0.20;;;12.70;99.90;;;13.36;77.72;100613.00;5049967;28;20638;-64
2022/09/18 04:15:59;;;;;;;0.30;0.20;;;12.60;99.90;;;13.38;77.48;100618.94;5052180;28;21068;-65
2022/09/18 04:18:26;;;;;;;0.30;0.20;;;12.60;99.90;;;13.31;78.30;100621.25;5049407;28;20672;-65
2022/09/18 04:20:52;;;;;;;0.30;0.30;;;12.60;99.90;;;13.41;77.65;100634.41;5050979;28;20739;-65
2022/09/18 04:23:19;;;;;;;0.30;0.30;;;12.60;99.90;;;13.38;77.73;100619.78;5032440;28;20632;-64
2022/09/18 04:25:46;;;;;;;0.30;0.20;;;12.60;99.90;;;13.34;77.64;100623.63;5030439;28;20662;-65
2022/09/18 04:28:13;;;;;;;0.30;0.20;;;12.60;99.90;;;13.40;77.34;100620.47;5035320;28;20682;-66
2022/09/18 04:30:40;;;;;;;0.30;0.20;;;12.60;99.90;;;13.42;77.15;100625.59;5051501;28;21198;-65
2022/09/18 04:33:07;;;;;;;0.30;0.20;;;12.60;99.90;;;13.41;77.67;100616.91;5048454;28;20666;-66
2022/09/18 04:35:34;;;;;;;0.30;0.30;;;12.70;99.90;;;13.46;77.05;100619.97;5030662;28;20601;-64
2022/09/18 04:38:01;;;;;;;0.30;0.23;;;12.70;99.90;;;13.37;77.60;100628.63;5041174;28;20694;-65
2022/09/18 04:40:27;;;;;;;0.30;0.30;;;12.60;99.90;;;13.45;77.42;100625.34;5049257;28;20611;-64
2022/09/18 04:42:54;;;;;;;0.30;0.20;;;12.70;99.90;;;13.41;77.37;100627.41;5047948;28;20616;-66
2022/09/18 04:45:21;;;;;;;0.30;0.23;;;12.60;99.90;;;13.29;77.75;100624.97;5068964;28;20607;-65
2022/09/18 04:47:49;;;;;;;0.30;0.20;;;12.60;99.90;;;13.19;78.47;100615.25;5054526;28;20635;-66
2022/09/18 04:50:16;;;;;;;0.30;0.30;;;12.60;99.90;;;13.37;77.15;100620.75;5072791;28;20611;-67
2022/09/18 04:52:43;;;;;;;0.30;0.20;;;12.60;99.90;;;13.44;76.85;100623.69;5047758;28;20667;-65
2022/09/18 04:55:10;;;;;;;0.30;0.30;;;12.70;99.90;;;13.41;77.04;100630.03;5031691;28;20620;-64
2022/09/18 04:57:37;;;;;;;0.30;0.20;;;12.70;99.90;;;13.37;77.01;100622.53;5031634;28;20722;-65
2022/09/18 05:00:05;;;;;;;0.30;0.20;;;12.70;99.90;;;13.41;77.29;100619.53;5044190;28;21337;-64
2022/09/18 05:02:32;;;;;;;0.30;0.20;;;12.70;99.90;;;13.41;76.95;100618.69;5037883;28;20636;-64
2022/09/18 05:04:59;;;;;;;0.30;0.30;;;12.60;99.90;;;13.43;76.45;100627.25;5030288;28;20612;-65
2022/09/18 05:07:26;;;;;;;0.30;0.20;;;12.70;99.90;;;13.50;76.40;100623.97;5031728;28;20844;-64
2022/09/18 05:09:53;;;;;;;0.30;0.20;;;12.70;99.90;;;13.39;76.56;100628.47;5045036;28;21280;-65
2022/09/18 05:12:20;;;;;;;0.30;0.20;;;12.70;99.90;;;13.51;76.19;100636.16;5072293;28;20623;-65
2022/09/18 05:14:47;;;;;;;0.30;0.30;;;12.70;99.90;;;13.54;76.44;100635.06;5058109;28;21064;-66
2022/09/18 05:17:14;;;;;;;0.30;0.20;;;12.80;99.90;;;13.52;76.25;100644.84;5050782;28;20668;-65
2022/09/18 05:19:41;;;;;;;0.30;0.20;;;12.70;99.90;;;13.51;76.41;100637.94;5050526;28;20632;-65
2022/09/18 05:22:08;;;;;;;0.30;0.30;;;12.70;99.90;;;13.56;75.91;100641.84;5051674;28;20612;-67
2022/09/18 05:24:34;;;;;;;0.30;0.20;;;12.70;99.90;;;13.50;76.01;100642.34;5051609;28;20726;-64
2022/09/18 05:27:02;;;;;;;0.30;0.20;;;12.80;99.90;;;13.56;76.17;100644.47;5061688;23;21039;-64
2022/09/18 05:29:29;;;;;;;0.30;0.20;;;12.80;99.90;;;13.50;75.88;100644.94;5029000;28;20633;-64
2022/09/18 05:31:56;;;;;;;0.30;0.20;;;12.80;99.90;;;13.55;75.60;100645.41;5028442;28;20635;-64
2022/09/18 05:34:23;;;;;;;0.30;0.20;;;12.90;99.90;;;13.47;76.09;100639.97;5029291;28;21225;-65
2022/09/18 05:36:50;;;;;;;0.30;0.20;;;12.80;99.90;;;13.47;75.80;100650.47;5016380;28;20657;-64
2022/09/18 05:39:16;;;;;;;0.30;0.20;;;12.80;99.90;;;13.44;75.69;100640.22;5010943;28;20652;-64
2022/09/18 05:41:48;;;;;;;0.40;0.40;;;12.80;99.90;;;13.44;76.10;100634.97;5017435;28;20643;-64
2022/09/18 05:44:16;;;;;;;0.30;0.20;;;12.80;99.90;;;13.41;76.71;100632.63;5030652;28;21273;-63
2022/09/18 05:46:43;;;;;;;0.30;0.30;;;12.70;99.90;;;13.51;76.14;100646.63;5030822;28;20752;-62
2022/09/18 05:49:09;;;;;;;0.30;0.20;;;12.80;99.90;;;13.52;76.27;100652.72;5028325;28;20652;-64
2022/09/18 05:51:37;;;;;;;0.30;0.30;;;12.80;99.90;;;13.56;76.00;100654.94;5025831;28;20687;-64
2022/09/18 05:54:05;;;;;;;0.30;0.20;;;12.80;99.90;;;13.53;76.13;100642.09;5027823;28;20975;-64
2022/09/18 05:56:32;;;;;;;0.30;0.20;;;12.80;99.90;;;13.52;75.83;100642.22;5024808;28;20709;-64
2022/09/18 05:58:58;;;;;;;0.30;0.30;;;12.80;99.90;;;13.51;75.98;100649.25;5026488;28;20697;-64
2022/09/18 06:01:25;;;;;;;0.30;0.30;;;12.80;99.90;;;13.56;75.47;100648.88;5030683;28;20633;-65
2022/09/18 06:03:52;;;;;;;0.30;0.20;;;12.90;99.90;;;13.70;74.81;100662.47;5027149;28;20736;-64
2022/09/18 06:06:19;;;;;;;0.30;0.20;;;12.90;99.90;;;13.65;75.03;100663.84;5025032;28;20657;-64
2022/09/18 06:08:46;;;;;;;0.30;0.20;;;13.00;99.90;;;13.57;75.39;100661.84;5015284;28;20645;-65
2022/09/18 06:11:13;;;;;;;0.30;0.20;;;12.90;99.90;;;13.53;76.04;100649.94;5027538;28;20807;-64
2022/09/18 06:13:40;;;;;;;0.30;0.20;;;12.90;99.90;;;13.55;75.75;100655.91;5025952;28;20711;-65
2022/09/18 06:16:06;;;;;;;0.30;0.30;;;12.90;99.90;;;13.59;76.02;100661.69;5016306;28;20641;-64
2022/09/18 06:18:33;;;;;;;0.30;0.20;;;12.90;99.90;;;13.79;75.19;100669.56;5021484;28;20657;-65
2022/09/18 06:21:00;;;;;;;0.30;0.20;;;13.00;99.90;;;13.67;76.21;100661.91;5031462;28;20632;-65
2022/09/18 06:23:28;;;;;;;0.30;0.20;;;13.00;99.90;;;13.67;75.94;100661.91;5022966;28;21204;-64
2022/09/18 06:25:59;;;;;;;0.30;0.20;;;13.00;99.90;;;13.68;76.45;100663.56;5032108;28;20637;-64
2022/09/18 06:28:27;;;;;;;0.30;0.30;;;13.00;99.90;;;13.81;75.70;100661.56;5031989;28;20637;-66
2022/09/18 06:30:54;;;;;;;0.30;0.20;;;13.10;99.90;;;14.06;75.43;100662.91;5032021;28;21248;-67
2022/09/18 06:33:21;;;;;;;0.30;0.20;;;13.20;99.90;;;14.22;74.21;100663.28;5034232;28;20617;-63
2022/09/18 06:35:48;;;;;;;0.30;0.30;;;13.30;99.90;;;14.39;73.81;100665.31;5026121;28;21257;-65
2022/09/18 06:38:15;;;;;;;0.30;0.20;;;13.50;99.90;;;14.72;72.82;100651.81;5028559;28;20706;-65
2022/09/18 06:40:53;;;;;;;0.30;0.20;;;13.70;99.90;;;14.98;71.67;100652.97;5018453;28;20625;-67
2022/09/18 06:43:20;;;;;;;0.30;0.20;;;13.90;99.90;;;15.33;70.40;100663.72;5033325;28;21211;-61
2022/09/18 06:45:52;;;;;;;0.30;0.20;;;14.20;99.90;;;15.55;69.08;100662.63;5028091;28;20648;-65
2022/09/18 06:48:19;;;;;;;0.30;0.30;;;14.30;99.90;;;15.50;68.89;100663.03;5030221;28;20989;-64
2022/09/18 06:50:53;;;;;;;0.30;0.30;;;14.50;99.90;;;15.51;68.67;100662.09;5020601;28;20706;-65
2022/09/18 06:53:21;;;;;;;0.30;0.30;;;14.50;99.90;;;15.47;69.15;100668.59;5031199;28;20669;-63
2022/09/18 06:55:49;;;;;;;0.30;0.30;;;14.50;99.90;;;15.53;68.90;100665.41;5030919;28;20698;-65
2022/09/18 06:58:18;;;;;;;0.30;0.30;;;14.60;99.90;;;15.67;68.56;100665.94;5032414;28;20706;-64
2022/09/18 07:00:45;;;;;;;0.30;0.23;;;14.70;99.90;;;15.75;67.83;100673.94;5031098;28;20687;-66
2022/09/18 07:03:12;;;;;;;1.43;1.33;;;14.70;99.90;;;15.80;67.38;100671.72;5015155;28;20637;-64
2022/09/18 07:05:41;;;;;;;0.30;0.30;;;14.80;99.90;;;15.80;67.37;100667.28;5022843;28;20640;-64
2022/09/18 07:08:09;;;;;;;0.30;0.30;;;14.80;99.90;;;15.80;67.38;100669.09;5029226;28;20729;-64
2022/09/18 07:10:36;;;;;;;0.30;0.20;;;14.80;99.90;;;15.77;67.34;100666.75;5022094;28;20621;-65
2022/09/18 07:13:03;;;;;;;0.30;0.27;;;14.80;99.90;;;15.92;66.35;100667.94;5019440;28;20660;-65
2022/09/18 07:15:31;;;;;;;0.30;0.30;;;14.90;99.90;;;15.92;65.76;100667.94;5030025;28;20678;-65
2022/09/18 07:18:00;;;;;;;0.30;0.30;;;14.90;99.90;;;15.80;65.95;100671.72;5017686;28;20672;-65
2022/09/18 07:20:28;;;;;;;0.30;0.20;;;14.90;99.90;;;15.66;67.19;100680.06;5032652;28;20608;-64
2022/09/18 07:23:00;;;;;;;0.30;0.20;;;14.80;99.90;;;15.49;67.62;100674.56;5032897;28;20613;-66
2022/09/18 07:25:30;;;;;;;0.30;0.30;;;14.70;99.90;;;15.53;67.67;100673.28;5031120;28;21231;-67
2022/09/18 07:28:06;;;;;;;0.30;0.30;;;14.70;99.90;;;15.50;67.90;100678.81;5030299;28;20669;-64
2022/09/18 07:30:36;;;;;;;0.30;0.20;;;14.60;99.90;;;15.42;67.57;100683.09;5030991;28;20636;-65
2022/09/18 07:33:05;;;;;;;0.30;0.30;;;14.60;99.90;;;15.49;67.43;100676.34;5015195;28;20637;-65
2022/09/18 07:35:32;;;;;;;0.30;0.30;;;14.60;99.90;;;15.39;67.51;100684.22;5010367;28;20638;-65
2022/09/18 07:38:00;;;;;;;0.63;0.63;;;14.60;99.90;;;15.49;67.59;100685.06;5014756;28;21255;-64
2022/09/18 07:40:28;;;;;;;0.30;0.30;;;14.60;99.90;;;15.58;67.15;100680.78;5029971;28;20686;-65
2022/09/18 07:43:07;;;;;;;0.30;0.20;;;14.70;99.90;;;15.65;66.40;100681.03;5009885;28;20646;-64
2022/09/18 07:45:35;;;;;;;0.30;0.27;;;14.70;99.90;;;15.84;65.64;100681.00;5028946;28;20678;-66
2022/09/18 07:48:04;;;;;;;0.30;0.30;;;14.80;99.90;;;15.89;65.71;100676.94;5024147;28;20665;-66
2022/09/18 07:50:32;;;;;;;0.30;0.30;;;14.90;99.90;;;16.12;64.11;100678.25;5021392;28;20633;-66
2022/09/18 07:53:02;;;;;;;0.30;0.20;;;15.00;99.90;;;16.34;63.28;100682.31;5018370;28;21196;-66
2022/09/18 07:55:29;;;;;;;0.30;0.20;;;15.20;99.90;;;16.30;63.47;100675.69;5015924;28;20622;-64
2022/09/18 07:57:59;;;;;;;0.30;0.30;;;15.30;99.90;;;16.25;63.83;100672.66;5023806;28;20661;-66
2022/09/18 08:00:30;;;;;;;0.30;0.27;;;15.30;99.90;;;16.45;63.55;100674.22;5012282;28;21038;-66
2022/09/18 08:03:10;;;;;;;0.30;0.23;;;15.30;99.90;;;16.68;62.76;100677.31;5014691;28;20634;-65
2022/09/18 08:05:39;;;;;;;0.33;0.33;;;15.50;99.90;;;16.80;61.84;100684.06;5031689;28;20617;-65
2022/09/18 08:08:11;;;;;;;0.30;0.30;;;15.70;99.90;;;16.68;62.41;100686.06;5021262;28;20715;-66
2022/09/18 08:10:40;;;;;;;0.30;0.30;;;15.70;99.90;;;16.58;62.82;100685.28;5022270;28;20977;-65
2022/09/18 08:13:08;;;;;;;0.30;0.30;;;15.60;99.90;;;16.51;62.70;100681.56;5022196;28;20981;-64
2022/09/18 08:15:39;;;;;;;0.30;0.30;;;15.60;99.90;;;16.62;62.86;100688.44;5024152;28;20633;-66
2022/09/18 08:18:08;;;;;;;0.30;0.23;;;15.60;99.90;;;16.59;62.42;100686.94;5019361;28;21087;-65
2022/09/18 08:20:35;;;;;;;0.30;0.30;;;15.70;99.90;;;16.77;61.71;100690.44;5029704;28;20670;-66
2022/09/18 08:23:05;;;;;;;0.30;0.30;;;15.80;99.90;;;16.91;61.50;100699.63;5013465;28;20641;-65
2022/09/18 08:25:32;;;;;;;0.30;0.30;;;15.90;99.90;;;17.18;60.31;100694.31;5012207;28;20610;-64
2022/09/18 08:28:01;;;;;;;0.30;0.30;;;16.10;99.90;;;17.57;59.31;100697.44;5016828;28;20726;-64
2022/09/18 08:30:29;;;;;;;0.30;0.30;;;16.30;99.90;;;17.80;58.86;100688.06;5031513;28;20703;-64
2022/09/18 08:33:05;;;;;;;0.30;0.30;;;16.50;99.90;;;17.71;59.05;100687.19;5030023;28;20625;-64
2022/09/18 08:35:32;;;;;;;0.30;0.30;;;16.60;99.90;;;17.65;58.42;100692.25;5030672;28;21024;-65
2022/09/18 08:38:00;;;;;;;0.30;0.30;;;16.60;99.90;;;17.79;57.93;100673.22;5026271;28;20924;-66
2022/09/18 08:41:01;;;;;;;0.30;0.30;;;16.70;99.90;;;17.87;57.58;100686.44;5028275;28;20633;-65
2022/09/18 08:43:59;;;;;;;0.30;0.30;;;16.70;99.90;;;18.20;56.77;100690.94;5029308;28;20988;-65
2022/09/18 08:46:42;;;;;;;0.30;0.30;;;16.90;99.90;;;17.90;57.39;100688.78;5024746;28;20652;-65
2022/09/18 08:49:28;;;;;;;0.30;0.30;;;17.00;99.90;;;17.32;59.21;100690.28;5029830;28;20719;-67
2022/09/18 08:52:07;;;;;;;0.30;0.30;;;16.70;99.90;;;17.08;60.21;100674.28;5010240;28;20613;-64
2022/09/18 08:54:40;;;;;;;0.50;0.50;;;16.50;99.90;;;17.50;59.05;100683.25;5020119;28;20643;-65
2022/09/18 08:57:18;;;;;;;0.30;0.30;;;16.50;99.90;;;17.37;58.72;100680.97;5011638;28;20699;-66
2022/09/18 09:00:07;;;;;;;0.30;0.30;;;16.40;99.90;;;17.11;60.02;100679.22;5010543;28;20654;-65
2022/09/18 09:02:40;;;;;;;0.30;0.30;;;16.30;99.90;;;16.99;60.40;100684.72;5022950;28;20625;-65
2022/09/18 09:05:20;;;;;;;0.30;0.30;;;16.20;99.90;;;16.87;60.48;100690.38;5029422;28;20656;-65
2022/09/18 09:08:15;;;;;;;0.60;0.60;;;16.10;99.90;;;16.88;60.79;100682.34;5030579;28;20989;-66
2022/09/18 09:11:20;;;;;;;0.30;0.30;;;16.10;99.90;;;16.93;60.03;100695.88;5030078;28;21246;-65
2022/09/18 09:14:00;;;;;;;0.30;0.30;;;16.00;99.90;;;17.30;59.82;100686.97;5011855;28;20660;-64
2022/09/18 09:17:04;;;;;;;0.30;0.20;;;16.20;99.90;;;17.47;58.94;100692.25;5016313;28;21268;-65
2022/09/18 09:20:26;;;;;;;0.30;0.30;;;16.30;99.90;;;17.94;57.04;100691.94;5025700;28;20730;-64
2022/09/18 09:23:00;;;;;;;0.30;0.30;;;16.70;99.90;;;18.18;56.39;100700.00;5027055;28;21164;-65
2022/09/18 09:26:03;;;;;;;0.30;0.30;;;17.00;99.90;;;18.29;56.01;100697.09;5032603;28;20656;-64
2022/09/18 09:28:36;;;;;;;0.30;0.30;;;17.10;99.90;;;18.40;55.65;100697.63;5018504;28;20669;-65
2022/09/18 09:31:08;;;;;;;0.30;0.30;;;17.20;99.90;;;18.49;55.02;100691.44;5031504;28;20640;-65
2022/09/18 09:33:50;;;;;;;0.30;0.30;;;17.20;99.90;;;18.53;55.23;100681.34;5019235;28;20641;-64
2022/09/18 09:36:23;;;;;;;0.30;0.30;;;17.30;99.90;;;18.74;54.75;100696.81;5017815;28;20664;-65
2022/09/18 09:39:25;;;;;;;0.30;0.30;;;17.50;99.90;;;18.93;54.17;100692.03;5018184;28;20665;-64
2022/09/18 09:42:21;;;;;;;0.30;0.30;;;17.60;99.90;;;19.11;53.61;100684.81;5036351;28;20674;-66
2022/09/18 09:45:12;;;;;;;0.30;0.30;;;17.70;99.90;;;19.10;53.25;100677.06;5029555;28;20687;-64
2022/09/18 09:48:15;;;;;;;0.30;0.30;;;17.90;99.90;;;19.14;52.93;100684.50;5035213;28;21054;-66
2022/09/18 09:50:56;;;;;;;0.30;0.30;;;17.90;99.90;;;18.92;53.25;100685.13;5032003;28;20694;-64
2022/09/18 09:53:25;;;;;;;0.37;0.37;;;17.90;99.90;;;18.73;53.86;100679.28;5033760;28;20678;-65
2022/09/18 09:56:35;;;;;;;0.30;0.30;;;17.70;99.90;;;18.41;54.41;100674.69;5033402;28;20617;-64
2022/09/18 09:59:21;;;;;;;0.30;0.30;;;17.60;99.90;;;18.55;54.29;100682.88;5015957;28;20660;-64
2022/09/18 10:02:19;;;;;;;0.30;0.30;;;17.50;99.90;;;18.55;54.54;100671.47;5019633;28;20637;-60
2022/09/18 10:05:15;;;;;;;0.30;0.30;;;17.50;99.90;;;18.54;54.23;100670.66;5028207;28;20617;-65
2022/09/18 10:07:48;;;;;;;0.30;0.30;;;17.50;99.90;;;18.80;54.00;100669.72;5025821;28;21077;-66
2022/09/18 10:10:46;;;;;;;0.30;0.30;;;17.60;99.90;;;19.44;52.27;100659.25;5035068;28;20621;-67
2022/09/18 10:13:38;;;;;;;0.30;0.30;;;17.90;99.90;;;21.21;48.21;100666.47;5027415;28;20658;-66
2022/09/18 10:16:28;;;;;;;0.30;0.30;;;18.90;99.90;;;22.50;43.82;100673.13;5027605;28;20676;-67
2022/09/18 10:18:56;;;;;;;0.33;0.33;;;19.80;99.90;;;23.49;41.56;100672.38;5023128;28;20676;-68
2022/09/18 10:21:27;;;;;;;0.30;0.30;;;20.70;98.60;;;22.52;43.30;100672.94;5019885;28;20696;-68
2022/09/18 10:24:34;;;;;;;0.40;0.40;;;20.60;97.50;;;21.08;46.50;100666.25;5016332;28;20772;-67
2022/09/18 10:27:08;;;;;;;0.30;0.30;;;20.30;97.90;;;20.74;47.37;100677.19;5019538;28;21254;-66
2022/09/18 10:29:35;;;;;;;0.30;0.30;;;19.70;98.20;;;20.43;48.38;100662.28;5022459;28;20640;-62
2022/09/18 10:32:03;;;;;;;0.30;0.30;;;19.30;98.80;;;19.95;48.90;100673.88;5023480;28;20640;-63
2022/09/18 10:34:46;;;;;;;0.30;0.30;;;18.90;99.10;;;19.17;50.78;100659.50;5031869;28;20628;-65
2022/09/18 10:37:28;;;;;;;0.30;0.30;;;18.40;99.60;;;18.98;51.63;100671.25;5018951;28;20669;-62
2022/09/18 10:40:00;;;;;;;0.30;0.30;;;18.10;99.90;;;18.76;51.88;100658.63;5024796;28;20661;-63